sensor_id;sensor_type;location;lat;lon;timestamp;temperature;humidity
42085;DHT22;27746;52.228;20.890;2024-02-23T00:02:15;8.20;99.90
42085;DHT22;27746;52.228;20.890;2024-02-23T00:04:42;8.20;99.90
42085;DHT22;27746;52.228;20.890;2024-02-23T00:07:08;8.20;99.90
42085;DHT22;27746;52.228;20.890;2024-02-23T00:09:35;8.20;99.90
42085;DHT22;27746;52.228;20.890;2024-02-23T00:12:03;8.20;99.90
42085;DHT22;27746;52.228;20.890;2024-02-23T00:14:31;8.20;99.90
42085;DHT22;27746;52.228;20.890;2024-02-23T00:16:58;8.20;99.90
42085;DHT22;27746;52.228;20.890;2024-02-23T00:19:27;8.20;99.90
42085;DHT22;27746;52.228;20.890;2024-02-23T00:21:53;8.20;99.90
42085;DHT22;27746;52.228;20.890;2024-02-23T00:24:20;8.20;99.90
42085;DHT22;27746;52.228;20.890;2024-02-23T00:26:48;8.20;99.90
42085;DHT22;27746;52.228;20.890;2024-02-23T00:29:16;8.20;99.90
42085;DHT22;27746;52.228;20.890;2024-02-23T00:31:44;8.20;99.90
42085;DHT22;27746;52.228;20.890;2024-02-23T00:34:11;8.20;99.90
42085;DHT22;27746;52.228;20.890;2024-02-23T00:36:39;8.30;99.90
42085;DHT22;27746;52.228;20.890;2024-02-23T00:39:07;8.30;99.90
42085;DHT22;27746;52.228;20.890;2024-02-23T00:41:34;8.30;99.90
42085;DHT22;27746;52.228;20.890;2024-02-23T00:44:01;8.30;99.90
42085;DHT22;27746;52.228;20.890;2024-02-23T00:46:28;8.30;99.90
42085;DHT22;27746;52.228;20.890;2024-02-23T00:48:56;8.30;99.90
42085;DHT22;27746;52.228;20.890;2024-02-23T00:51:23;8.30;99.90
42085;DHT22;27746;52.228;20.890;2024-02-23T00:53:50;8.30;99.90
42085;DHT22;27746;52.228;20.890;2024-02-23T00:56:17;8.30;99.90
42085;DHT22;27746;52.228;20.890;2024-02-23T00:58:43;8.30;99.90
42085;DHT22;27746;52.228;20.890;2024-02-23T01:01:10;8.30;99.90
42085;DHT22;27746;52.228;20.890;2024-02-23T01:03:37;8.30;99.90
42085;DHT22;27746;52.228;20.890;2024-02-23T01:06:05;8.30;99.90
42085;DHT22;27746;52.228;20.890;2024-02-23T01:08:32;8.30;99.90
42085;DHT22;27746;52.228;20.890;2024-02-23T01:11:00;8.30;99.90
42085;DHT22;27746;52.228;20.890;2024-02-23T01:13:29;8.30;99.90
42085;DHT22;27746;52.228;20.890;2024-02-23T01:15:56;8.30;99.90
42085;DHT22;27746;52.228;20.890;2024-02-23T01:18:23;8.30;99.90
42085;DHT22;27746;52.228;20.890;2024-02-23T01:20:50;8.30;99.90
42085;DHT22;27746;52.228;20.890;2024-02-23T01:23:18;8.30;99.90
42085;DHT22;27746;52.228;20.890;2024-02-23T01:25:45;8.30;99.90
42085;DHT22;27746;52.228;20.890;2024-02-23T01:28:12;8.30;99.90
42085;DHT22;27746;52.228;20.890;2024-02-23T01:30:39;8.30;99.90
42085;DHT22;27746;52.228;20.890;2024-02-23T01:33:06;8.30;99.90
42085;DHT22;27746;52.228;20.890;2024-02-23T01:35:33;8.30;99.90
42085;DHT22;27746;52.228;20.890;2024-02-23T01:38:02;8.30;99.90
42085;DHT22;27746;52.228;20.890;2024-02-23T01:40:30;8.30;99.90
42085;DHT22;27746;52.228;20.890;2024-02-23T01:43:03;8.30;99.90
42085;DHT22;27746;52.228;20.890;2024-02-23T01:45:30;8.30;99.90
42085;DHT22;27746;52.228;20.890;2024-02-23T01:47:58;8.30;99.90
42085;DHT22;27746;52.228;20.890;2024-02-23T01:50:25;8.40;99.90
42085;DHT22;27746;52.228;20.890;2024-02-23T01:52:53;8.40;99.90
42085;DHT22;27746;52.228;20.890;2024-02-23T01:55:21;8.30;99.90
42085;DHT22;27746;52.228;20.890;2024-02-23T01:57:50;8.30;99.90
42085;DHT22;27746;52.228;20.890;2024-02-23T02:00:18;8.40;99.90
42085;DHT22;27746;52.228;20.890;2024-02-23T02:02:47;8.40;99.90
42085;DHT22;27746;52.228;20.890;2024-02-23T02:05:14;8.30;99.90
42085;DHT22;27746;52.228;20.890;2024-02-23T02:07:42;8.40;99.90
42085;DHT22;27746;52.228;20.890;2024-02-23T02:10:09;8.40;99.90
42085;DHT22;27746;52.228;20.890;2024-02-23T02:12:36;8.40;99.90
42085;DHT22;27746;52.228;20.890;2024-02-23T02:15:08;8.40;99.90
42085;DHT22;27746;52.228;20.890;2024-02-23T02:17:35;8.40;99.90
42085;DHT22;27746;52.228;20.890;2024-02-23T02:20:03;8.40;99.90
42085;DHT22;27746;52.228;20.890;2024-02-23T02:22:32;8.40;99.90
42085;DHT22;27746;52.228;20.890;2024-02-23T02:24:59;8.40;99.90
42085;DHT22;27746;52.228;20.890;2024-02-23T02:27:26;8.40;99.90
42085;DHT22;27746;52.228;20.890;2024-02-23T02:29:53;8.40;99.90
42085;DHT22;27746;52.228;20.890;2024-02-23T02:32:22;8.40;99.90
42085;DHT22;27746;52.228;20.890;2024-02-23T02:34:49;8.40;99.90
42085;DHT22;27746;52.228;20.890;2024-02-23T02:37:16;8.40;99.90
42085;DHT22;27746;52.228;20.890;2024-02-23T02:39:43;8.40;99.90
42085;DHT22;27746;52.228;20.890;2024-02-23T02:42:09;8.40;99.90
42085;DHT22;27746;52.228;20.890;2024-02-23T02:44:36;8.40;99.90
42085;DHT22;27746;52.228;20.890;2024-02-23T02:47:03;8.40;99.90
42085;DHT22;27746;52.228;20.890;2024-02-23T02:49:32;8.40;99.90
42085;DHT22;27746;52.228;20.890;2024-02-23T02:51:59;8.50;99.90
42085;DHT22;27746;52.228;20.890;2024-02-23T02:54:26;8.40;99.90
42085;DHT22;27746;52.228;20.890;2024-02-23T02:56:53;8.40;99.90
42085;DHT22;27746;52.228;20.890;2024-02-23T02:59:20;8.40;99.90
42085;DHT22;27746;52.228;20.890;2024-02-23T03:01:47;8.40;99.90
42085;DHT22;27746;52.228;20.890;2024-02-23T03:04:14;8.50;99.90
42085;DHT22;27746;52.228;20.890;2024-02-23T03:06:42;8.50;99.90
42085;DHT22;27746;52.228;20.890;2024-02-23T03:09:09;8.50;99.90
42085;DHT22;27746;52.228;20.890;2024-02-23T03:11:36;8.50;99.90
42085;DHT22;27746;52.228;20.890;2024-02-23T03:14:03;8.40;99.90
42085;DHT22;27746;52.228;20.890;2024-02-23T03:16:30;8.50;99.90
42085;DHT22;27746;52.228;20.890;2024-02-23T03:18:57;8.40;99.90
42085;DHT22;27746;52.228;20.890;2024-02-23T03:21:23;8.50;99.90
42085;DHT22;27746;52.228;20.890;2024-02-23T03:23:52;8.40;99.90
42085;DHT22;27746;52.228;20.890;2024-02-23T03:26:19;8.40;99.90
42085;DHT22;27746;52.228;20.890;2024-02-23T03:28:45;8.30;99.90
42085;DHT22;27746;52.228;20.890;2024-02-23T03:31:14;8.30;99.90
42085;DHT22;27746;52.228;20.890;2024-02-23T03:33:41;8.30;99.90
42085;DHT22;27746;52.228;20.890;2024-02-23T03:36:07;8.20;99.90
42085;DHT22;27746;52.228;20.890;2024-02-23T03:38:34;8.20;99.90
42085;DHT22;27746;52.228;20.890;2024-02-23T03:41:03;8.20;99.90
42085;DHT22;27746;52.228;20.890;2024-02-23T03:43:30;8.10;99.90
42085;DHT22;27746;52.228;20.890;2024-02-23T03:45:57;8.20;99.90
42085;DHT22;27746;52.228;20.890;2024-02-23T03:48:23;8.10;99.90
42085;DHT22;27746;52.228;20.890;2024-02-23T03:50:50;8.10;99.90
42085;DHT22;27746;52.228;20.890;2024-02-23T03:53:17;8.10;99.90
42085;DHT22;27746;52.228;20.890;2024-02-23T03:55:54;8.10;99.90
42085;DHT22;27746;52.228;20.890;2024-02-23T03:58:22;8.00;99.90
42085;DHT22;27746;52.228;20.890;2024-02-23T04:00:49;8.00;99.90
42085;DHT22;27746;52.228;20.890;2024-02-23T04:03:16;8.00;99.90
42085;DHT22;27746;52.228;20.890;2024-02-23T04:05:43;7.90;99.90
42085;DHT22;27746;52.228;20.890;2024-02-23T04:08:10;7.90;99.90
42085;DHT22;27746;52.228;20.890;2024-02-23T04:10:36;7.90;99.90
42085;DHT22;27746;52.228;20.890;2024-02-23T04:13:04;7.90;99.90
42085;DHT22;27746;52.228;20.890;2024-02-23T04:15:32;7.80;99.90
42085;DHT22;27746;52.228;20.890;2024-02-23T04:17:59;7.80;99.90
42085;DHT22;27746;52.228;20.890;2024-02-23T04:20:26;7.80;99.90
42085;DHT22;27746;52.228;20.890;2024-02-23T04:22:52;7.80;99.90
42085;DHT22;27746;52.228;20.890;2024-02-23T04:25:19;7.80;99.90
42085;DHT22;27746;52.228;20.890;2024-02-23T04:27:46;7.80;99.90
42085;DHT22;27746;52.228;20.890;2024-02-23T04:30:14;7.70;99.90
42085;DHT22;27746;52.228;20.890;2024-02-23T04:32:42;7.80;99.90
42085;DHT22;27746;52.228;20.890;2024-02-23T04:35:09;7.70;99.90
42085;DHT22;27746;52.228;20.890;2024-02-23T04:37:36;7.70;99.90
42085;DHT22;27746;52.228;20.890;2024-02-23T04:40:05;7.70;99.90
42085;DHT22;27746;52.228;20.890;2024-02-23T04:42:32;7.70;99.90
42085;DHT22;27746;52.228;20.890;2024-02-23T04:44:59;7.70;99.90
42085;DHT22;27746;52.228;20.890;2024-02-23T04:47:26;7.70;99.90
42085;DHT22;27746;52.228;20.890;2024-02-23T04:49:57;7.70;99.90
42085;DHT22;27746;52.228;20.890;2024-02-23T04:52:24;7.80;99.90
42085;DHT22;27746;52.228;20.890;2024-02-23T04:54:51;7.70;99.90
42085;DHT22;27746;52.228;20.890;2024-02-23T04:57:18;7.70;99.90
42085;DHT22;27746;52.228;20.890;2024-02-23T04:59:45;7.70;99.90
42085;DHT22;27746;52.228;20.890;2024-02-23T05:02:12;7.70;99.90
42085;DHT22;27746;52.228;20.890;2024-02-23T05:04:40;7.70;99.90
42085;DHT22;27746;52.228;20.890;2024-02-23T05:07:08;7.70;99.90
42085;DHT22;27746;52.228;20.890;2024-02-23T05:09:35;7.70;99.90
42085;DHT22;27746;52.228;20.890;2024-02-23T05:12:02;7.70;99.90
42085;DHT22;27746;52.228;20.890;2024-02-23T05:14:29;7.70;99.90
42085;DHT22;27746;52.228;20.890;2024-02-23T05:16:56;7.70;99.90
42085;DHT22;27746;52.228;20.890;2024-02-23T05:19:26;7.70;99.90
42085;DHT22;27746;52.228;20.890;2024-02-23T05:21:52;7.70;99.90
42085;DHT22;27746;52.228;20.890;2024-02-23T05:24:21;7.70;99.90
42085;DHT22;27746;52.228;20.890;2024-02-23T05:26:47;7.70;99.90
42085;DHT22;27746;52.228;20.890;2024-02-23T05:29:14;7.70;99.90
42085;DHT22;27746;52.228;20.890;2024-02-23T05:31:48;7.70;99.90
42085;DHT22;27746;52.228;20.890;2024-02-23T05:34:15;7.70;99.90
42085;DHT22;27746;52.228;20.890;2024-02-23T05:36:42;7.70;99.90
42085;DHT22;27746;52.228;20.890;2024-02-23T05:39:09;7.70;99.90
42085;DHT22;27746;52.228;20.890;2024-02-23T05:41:37;7.70;99.90
42085;DHT22;27746;52.228;20.890;2024-02-23T05:44:04;7.70;99.90
42085;DHT22;27746;52.228;20.890;2024-02-23T05:46:32;7.60;99.90
42085;DHT22;27746;52.228;20.890;2024-02-23T05:49:04;7.70;99.90
42085;DHT22;27746;52.228;20.890;2024-02-23T05:51:31;7.70;99.90
42085;DHT22;27746;52.228;20.890;2024-02-23T05:53:58;7.70;99.90
42085;DHT22;27746;52.228;20.890;2024-02-23T05:56:27;7.70;99.90
42085;DHT22;27746;52.228;20.890;2024-02-23T05:58:55;7.70;99.90
42085;DHT22;27746;52.228;20.890;2024-02-23T06:01:22;7.70;99.90
42085;DHT22;27746;52.228;20.890;2024-02-23T06:03:49;7.70;99.90
42085;DHT22;27746;52.228;20.890;2024-02-23T06:06:16;7.70;99.90
42085;DHT22;27746;52.228;20.890;2024-02-23T06:08:43;7.70;99.90
42085;DHT22;27746;52.228;20.890;2024-02-23T06:11:10;7.70;99.90
42085;DHT22;27746;52.228;20.890;2024-02-23T06:13:37;7.70;99.90
42085;DHT22;27746;52.228;20.890;2024-02-23T06:16:09;7.70;99.90
42085;DHT22;27746;52.228;20.890;2024-02-23T06:18:38;7.70;99.90
42085;DHT22;27746;52.228;20.890;2024-02-23T06:21:12;7.70;99.90
42085;DHT22;27746;52.228;20.890;2024-02-23T06:26:48;7.60;99.90
42085;DHT22;27746;52.228;20.890;2024-02-23T06:29:15;7.70;99.90
42085;DHT22;27746;52.228;20.890;2024-02-23T06:31:43;7.70;99.90
42085;DHT22;27746;52.228;20.890;2024-02-23T06:34:14;7.70;99.90
42085;DHT22;27746;52.228;20.890;2024-02-23T06:36:41;7.80;99.90
42085;DHT22;27746;52.228;20.890;2024-02-23T06:39:08;7.70;99.90
42085;DHT22;27746;52.228;20.890;2024-02-23T06:41:36;7.70;99.90
42085;DHT22;27746;52.228;20.890;2024-02-23T06:44:04;7.80;99.90
42085;DHT22;27746;52.228;20.890;2024-02-23T06:46:31;7.80;99.90
42085;DHT22;27746;52.228;20.890;2024-02-23T06:48:59;7.80;99.90
42085;DHT22;27746;52.228;20.890;2024-02-23T06:51:26;7.80;99.90
42085;DHT22;27746;52.228;20.890;2024-02-23T06:53:53;7.80;99.90
42085;DHT22;27746;52.228;20.890;2024-02-23T06:56:20;7.90;99.90
42085;DHT22;27746;52.228;20.890;2024-02-23T06:58:47;7.90;99.90
42085;DHT22;27746;52.228;20.890;2024-02-23T07:01:14;7.90;99.90
42085;DHT22;27746;52.228;20.890;2024-02-23T07:03:41;7.90;99.90
42085;DHT22;27746;52.228;20.890;2024-02-23T07:06:12;7.90;99.90
42085;DHT22;27746;52.228;20.890;2024-02-23T07:08:38;8.00;99.90
42085;DHT22;27746;52.228;20.890;2024-02-23T07:11:05;7.90;99.90
42085;DHT22;27746;52.228;20.890;2024-02-23T07:13:32;8.00;99.90
42085;DHT22;27746;52.228;20.890;2024-02-23T07:16:00;7.90;99.90
42085;DHT22;27746;52.228;20.890;2024-02-23T07:18:27;7.90;99.90
42085;DHT22;27746;52.228;20.890;2024-02-23T07:20:54;8.00;99.90
42085;DHT22;27746;52.228;20.890;2024-02-23T07:23:23;8.00;99.90
42085;DHT22;27746;52.228;20.890;2024-02-23T07:25:50;8.00;99.90
42085;DHT22;27746;52.228;20.890;2024-02-23T07:28:17;8.00;99.90
42085;DHT22;27746;52.228;20.890;2024-02-23T07:30:45;8.00;99.90
42085;DHT22;27746;52.228;20.890;2024-02-23T07:33:12;8.10;99.90
42085;DHT22;27746;52.228;20.890;2024-02-23T07:35:39;8.10;99.90
42085;DHT22;27746;52.228;20.890;2024-02-23T07:38:06;8.10;99.90
42085;DHT22;27746;52.228;20.890;2024-02-23T07:40:34;8.20;99.90
42085;DHT22;27746;52.228;20.890;2024-02-23T07:43:01;8.20;99.90
42085;DHT22;27746;52.228;20.890;2024-02-23T07:45:28;8.20;99.90
42085;DHT22;27746;52.228;20.890;2024-02-23T07:47:56;8.20;99.90
42085;DHT22;27746;52.228;20.890;2024-02-23T07:50:23;8.20;99.90
42085;DHT22;27746;52.228;20.890;2024-02-23T07:52:50;8.20;99.90
42085;DHT22;27746;52.228;20.890;2024-02-23T07:55:17;8.30;99.90
42085;DHT22;27746;52.228;20.890;2024-02-23T07:57:45;8.30;99.90
42085;DHT22;27746;52.228;20.890;2024-02-23T08:00:12;8.20;99.90
42085;DHT22;27746;52.228;20.890;2024-02-23T08:02:40;8.30;99.90
42085;DHT22;27746;52.228;20.890;2024-02-23T08:05:07;8.30;99.90
42085;DHT22;27746;52.228;20.890;2024-02-23T08:07:34;8.30;99.90
42085;DHT22;27746;52.228;20.890;2024-02-23T08:10:02;8.30;99.90
42085;DHT22;27746;52.228;20.890;2024-02-23T08:12:30;8.30;99.90
42085;DHT22;27746;52.228;20.890;2024-02-23T08:14:58;8.30;99.90
42085;DHT22;27746;52.228;20.890;2024-02-23T08:17:25;8.30;99.90
42085;DHT22;27746;52.228;20.890;2024-02-23T08:19:52;8.30;99.90
42085;DHT22;27746;52.228;20.890;2024-02-23T08:22:20;8.30;99.90
42085;DHT22;27746;52.228;20.890;2024-02-23T08:24:47;8.40;99.90
42085;DHT22;27746;52.228;20.890;2024-02-23T08:27:13;8.40;99.90
42085;DHT22;27746;52.228;20.890;2024-02-23T08:29:41;8.40;99.90
42085;DHT22;27746;52.228;20.890;2024-02-23T08:32:09;8.50;99.90
42085;DHT22;27746;52.228;20.890;2024-02-23T08:34:36;8.50;99.90
42085;DHT22;27746;52.228;20.890;2024-02-23T08:37:03;8.50;99.90
42085;DHT22;27746;52.228;20.890;2024-02-23T08:39:30;8.60;99.90
42085;DHT22;27746;52.228;20.890;2024-02-23T08:41:57;8.60;99.90
42085;DHT22;27746;52.228;20.890;2024-02-23T08:44:24;8.60;99.90
42085;DHT22;27746;52.228;20.890;2024-02-23T08:46:51;8.60;99.90
42085;DHT22;27746;52.228;20.890;2024-02-23T08:49:19;8.70;99.90
42085;DHT22;27746;52.228;20.890;2024-02-23T08:51:46;8.70;99.90
42085;DHT22;27746;52.228;20.890;2024-02-23T08:54:13;8.70;99.90
42085;DHT22;27746;52.228;20.890;2024-02-23T08:56:40;8.70;99.90
42085;DHT22;27746;52.228;20.890;2024-02-23T08:59:08;8.80;99.90
42085;DHT22;27746;52.228;20.890;2024-02-23T09:01:35;8.80;99.90
42085;DHT22;27746;52.228;20.890;2024-02-23T09:04:02;8.80;99.90
42085;DHT22;27746;52.228;20.890;2024-02-23T09:06:30;8.90;99.90
42085;DHT22;27746;52.228;20.890;2024-02-23T09:08:58;8.90;99.90
42085;DHT22;27746;52.228;20.890;2024-02-23T09:11:25;8.90;99.90
42085;DHT22;27746;52.228;20.890;2024-02-23T09:13:52;9.00;99.90
42085;DHT22;27746;52.228;20.890;2024-02-23T09:16:19;9.10;99.90
42085;DHT22;27746;52.228;20.890;2024-02-23T09:18:48;9.20;99.90
42085;DHT22;27746;52.228;20.890;2024-02-23T09:21:14;9.20;99.90
42085;DHT22;27746;52.228;20.890;2024-02-23T09:23:43;9.30;99.90
42085;DHT22;27746;52.228;20.890;2024-02-23T09:26:10;9.40;99.90
42085;DHT22;27746;52.228;20.890;2024-02-23T09:28:37;9.40;99.90
42085;DHT22;27746;52.228;20.890;2024-02-23T09:31:06;9.40;99.90
42085;DHT22;27746;52.228;20.890;2024-02-23T09:33:33;9.50;99.90
42085;DHT22;27746;52.228;20.890;2024-02-23T09:36:00;9.50;99.90
42085;DHT22;27746;52.228;20.890;2024-02-23T09:38:27;9.50;99.90
42085;DHT22;27746;52.228;20.890;2024-02-23T09:40:55;9.60;99.90
42085;DHT22;27746;52.228;20.890;2024-02-23T09:43:22;9.60;99.90
42085;DHT22;27746;52.228;20.890;2024-02-23T09:45:52;9.60;99.90
42085;DHT22;27746;52.228;20.890;2024-02-23T09:48:19;9.50;99.90
42085;DHT22;27746;52.228;20.890;2024-02-23T09:50:47;9.50;99.90
42085;DHT22;27746;52.228;20.890;2024-02-23T09:53:14;9.50;99.90
42085;DHT22;27746;52.228;20.890;2024-02-23T09:55:44;9.50;99.90
42085;DHT22;27746;52.228;20.890;2024-02-23T09:58:14;9.40;99.90
42085;DHT22;27746;52.228;20.890;2024-02-23T10:00:42;9.40;99.90
42085;DHT22;27746;52.228;20.890;2024-02-23T10:03:09;9.40;99.90
42085;DHT22;27746;52.228;20.890;2024-02-23T10:05:36;9.40;99.90
42085;DHT22;27746;52.228;20.890;2024-02-23T10:08:04;9.40;99.90
42085;DHT22;27746;52.228;20.890;2024-02-23T10:10:33;9.50;99.90
42085;DHT22;27746;52.228;20.890;2024-02-23T10:13:01;9.50;99.90
42085;DHT22;27746;52.228;20.890;2024-02-23T10:15:31;9.50;99.90
42085;DHT22;27746;52.228;20.890;2024-02-23T10:17:58;9.60;99.90
42085;DHT22;27746;52.228;20.890;2024-02-23T10:20:25;9.60;99.90
42085;DHT22;27746;52.228;20.890;2024-02-23T10:22:52;9.60;99.90
42085;DHT22;27746;52.228;20.890;2024-02-23T10:25:19;9.60;99.90
42085;DHT22;27746;52.228;20.890;2024-02-23T10:27:46;9.60;99.90
42085;DHT22;27746;52.228;20.890;2024-02-23T10:30:14;9.60;99.90
42085;DHT22;27746;52.228;20.890;2024-02-23T10:32:42;9.60;99.90
42085;DHT22;27746;52.228;20.890;2024-02-23T10:35:11;9.60;99.90
42085;DHT22;27746;52.228;20.890;2024-02-23T10:37:42;9.60;99.90
42085;DHT22;27746;52.228;20.890;2024-02-23T10:40:11;9.70;99.90
42085;DHT22;27746;52.228;20.890;2024-02-23T10:42:39;9.70;99.90
42085;DHT22;27746;52.228;20.890;2024-02-23T10:45:08;9.70;99.90
42085;DHT22;27746;52.228;20.890;2024-02-23T10:47:35;9.70;99.90
42085;DHT22;27746;52.228;20.890;2024-02-23T10:50:06;9.60;99.90
42085;DHT22;27746;52.228;20.890;2024-02-23T10:52:33;9.70;99.90
42085;DHT22;27746;52.228;20.890;2024-02-23T10:55:01;9.70;99.90
42085;DHT22;27746;52.228;20.890;2024-02-23T10:57:30;9.70;99.90
42085;DHT22;27746;52.228;20.890;2024-02-23T10:59:58;9.70;99.90
42085;DHT22;27746;52.228;20.890;2024-02-23T11:02:27;9.70;99.90
42085;DHT22;27746;52.228;20.890;2024-02-23T11:04:56;9.70;99.90
42085;DHT22;27746;52.228;20.890;2024-02-23T11:07:25;9.70;99.90
42085;DHT22;27746;52.228;20.890;2024-02-23T11:09:54;9.70;99.90
42085;DHT22;27746;52.228;20.890;2024-02-23T11:12:23;9.70;99.90
42085;DHT22;27746;52.228;20.890;2024-02-23T11:14:51;9.70;99.90
42085;DHT22;27746;52.228;20.890;2024-02-23T11:17:18;9.70;99.90
42085;DHT22;27746;52.228;20.890;2024-02-23T11:19:48;9.70;99.90
42085;DHT22;27746;52.228;20.890;2024-02-23T11:22:25;9.70;99.90
42085;DHT22;27746;52.228;20.890;2024-02-23T11:24:53;9.70;99.90
42085;DHT22;27746;52.228;20.890;2024-02-23T11:27:24;9.80;99.90
42085;DHT22;27746;52.228;20.890;2024-02-23T11:29:59;9.80;99.90
42085;DHT22;27746;52.228;20.890;2024-02-23T11:32:36;9.80;99.90
42085;DHT22;27746;52.228;20.890;2024-02-23T11:35:06;9.80;99.90
42085;DHT22;27746;52.228;20.890;2024-02-23T11:37:44;9.80;99.90
42085;DHT22;27746;52.228;20.890;2024-02-23T11:40:12;9.90;99.90
42085;DHT22;27746;52.228;20.890;2024-02-23T11:42:40;9.90;99.90
42085;DHT22;27746;52.228;20.890;2024-02-23T11:45:08;9.90;99.90
42085;DHT22;27746;52.228;20.890;2024-02-23T11:47:36;9.90;99.90
42085;DHT22;27746;52.228;20.890;2024-02-23T11:50:04;9.80;99.90
42085;DHT22;27746;52.228;20.890;2024-02-23T11:52:34;9.90;99.90
42085;DHT22;27746;52.228;20.890;2024-02-23T11:55:04;9.90;99.90
42085;DHT22;27746;52.228;20.890;2024-02-23T11:57:36;10.00;99.90
42085;DHT22;27746;52.228;20.890;2024-02-23T12:00:13;10.00;99.90
42085;DHT22;27746;52.228;20.890;2024-02-23T12:02:57;10.00;99.90
42085;DHT22;27746;52.228;20.890;2024-02-23T12:12:44;10.20;99.90
42085;DHT22;27746;52.228;20.890;2024-02-23T12:15:15;9.90;99.90
42085;DHT22;27746;52.228;20.890;2024-02-23T12:17:50;10.00;99.90
42085;DHT22;27746;52.228;20.890;2024-02-23T12:20:23;10.00;99.90
42085;DHT22;27746;52.228;20.890;2024-02-23T12:26:01;10.00;99.90
42085;DHT22;27746;52.228;20.890;2024-02-23T12:28:46;10.00;99.90
42085;DHT22;27746;52.228;20.890;2024-02-23T12:31:31;10.10;99.90
42085;DHT22;27746;52.228;20.890;2024-02-23T12:34:00;10.20;99.90
42085;DHT22;27746;52.228;20.890;2024-02-23T12:36:28;10.20;99.90
42085;DHT22;27746;52.228;20.890;2024-02-23T12:38:56;10.20;99.90
42085;DHT22;27746;52.228;20.890;2024-02-23T12:41:23;10.20;99.90
42085;DHT22;27746;52.228;20.890;2024-02-23T12:43:51;10.20;99.90
42085;DHT22;27746;52.228;20.890;2024-02-23T12:46:19;10.20;99.90
42085;DHT22;27746;52.228;20.890;2024-02-23T12:48:46;10.10;99.90
42085;DHT22;27746;52.228;20.890;2024-02-23T12:51:15;10.10;99.90
42085;DHT22;27746;52.228;20.890;2024-02-23T12:53:42;10.00;99.90
42085;DHT22;27746;52.228;20.890;2024-02-23T12:56:10;10.00;99.90
42085;DHT22;27746;52.228;20.890;2024-02-23T12:58:40;10.00;99.90
42085;DHT22;27746;52.228;20.890;2024-02-23T13:01:08;10.00;99.90
42085;DHT22;27746;52.228;20.890;2024-02-23T13:03:37;10.00;99.90
42085;DHT22;27746;52.228;20.890;2024-02-23T13:06:05;10.00;99.90
42085;DHT22;27746;52.228;20.890;2024-02-23T13:08:33;10.00;99.90
42085;DHT22;27746;52.228;20.890;2024-02-23T13:11:00;10.00;99.90
42085;DHT22;27746;52.228;20.890;2024-02-23T13:13:27;10.00;99.90
42085;DHT22;27746;52.228;20.890;2024-02-23T13:15:55;10.00;99.90
42085;DHT22;27746;52.228;20.890;2024-02-23T13:18:23;10.00;99.90
42085;DHT22;27746;52.228;20.890;2024-02-23T13:20:51;10.00;99.90
42085;DHT22;27746;52.228;20.890;2024-02-23T13:23:17;10.00;99.90
42085;DHT22;27746;52.228;20.890;2024-02-23T13:25:45;10.00;99.90
42085;DHT22;27746;52.228;20.890;2024-02-23T13:28:12;10.00;99.90
42085;DHT22;27746;52.228;20.890;2024-02-23T13:30:39;10.00;99.90
42085;DHT22;27746;52.228;20.890;2024-02-23T13:33:06;9.90;99.90
42085;DHT22;27746;52.228;20.890;2024-02-23T13:35:35;9.90;99.90
42085;DHT22;27746;52.228;20.890;2024-02-23T13:38:01;9.90;99.90
42085;DHT22;27746;52.228;20.890;2024-02-23T13:40:29;9.90;99.90
42085;DHT22;27746;52.228;20.890;2024-02-23T13:42:57;9.90;99.90
42085;DHT22;27746;52.228;20.890;2024-02-23T13:45:24;9.90;99.90
42085;DHT22;27746;52.228;20.890;2024-02-23T13:47:58;9.90;99.90
42085;DHT22;27746;52.228;20.890;2024-02-23T13:50:25;9.90;99.90
42085;DHT22;27746;52.228;20.890;2024-02-23T13:52:55;9.80;99.90
42085;DHT22;27746;52.228;20.890;2024-02-23T13:55:22;9.80;99.90
42085;DHT22;27746;52.228;20.890;2024-02-23T13:57:49;9.80;99.90
42085;DHT22;27746;52.228;20.890;2024-02-23T14:00:17;9.80;99.90
42085;DHT22;27746;52.228;20.890;2024-02-23T14:02:45;9.80;99.90
42085;DHT22;27746;52.228;20.890;2024-02-23T14:05:12;9.80;99.90
42085;DHT22;27746;52.228;20.890;2024-02-23T14:07:40;9.80;99.90
42085;DHT22;27746;52.228;20.890;2024-02-23T14:10:09;9.80;99.90
42085;DHT22;27746;52.228;20.890;2024-02-23T14:12:36;9.80;99.90
42085;DHT22;27746;52.228;20.890;2024-02-23T14:15:03;9.80;99.90
42085;DHT22;27746;52.228;20.890;2024-02-23T14:17:31;9.80;99.90
42085;DHT22;27746;52.228;20.890;2024-02-23T14:19:58;9.80;99.90
42085;DHT22;27746;52.228;20.890;2024-02-23T14:22:25;9.80;99.90
42085;DHT22;27746;52.228;20.890;2024-02-23T14:24:53;9.80;99.90
42085;DHT22;27746;52.228;20.890;2024-02-23T14:27:21;9.90;99.90
42085;DHT22;27746;52.228;20.890;2024-02-23T14:29:48;9.90;99.90
42085;DHT22;27746;52.228;20.890;2024-02-23T14:32:16;9.90;99.90
42085;DHT22;27746;52.228;20.890;2024-02-23T14:34:43;9.80;99.90
42085;DHT22;27746;52.228;20.890;2024-02-23T14:37:11;9.90;99.90
42085;DHT22;27746;52.228;20.890;2024-02-23T14:39:39;9.90;99.90
42085;DHT22;27746;52.228;20.890;2024-02-23T14:42:06;9.90;99.90
42085;DHT22;27746;52.228;20.890;2024-02-23T14:44:35;9.90;99.90
42085;DHT22;27746;52.228;20.890;2024-02-23T14:47:02;9.90;99.90
42085;DHT22;27746;52.228;20.890;2024-02-23T14:49:30;9.90;99.90
42085;DHT22;27746;52.228;20.890;2024-02-23T14:51:57;9.90;99.90
42085;DHT22;27746;52.228;20.890;2024-02-23T14:54:24;10.00;99.90
42085;DHT22;27746;52.228;20.890;2024-02-23T14:56:51;10.00;99.90
42085;DHT22;27746;52.228;20.890;2024-02-23T14:59:18;10.00;99.90
42085;DHT22;27746;52.228;20.890;2024-02-23T15:01:46;10.00;99.90
42085;DHT22;27746;52.228;20.890;2024-02-23T15:04:13;10.00;99.90
42085;DHT22;27746;52.228;20.890;2024-02-23T15:06:40;10.10;99.90
42085;DHT22;27746;52.228;20.890;2024-02-23T15:09:07;10.00;99.90
42085;DHT22;27746;52.228;20.890;2024-02-23T15:11:33;10.00;99.90
42085;DHT22;27746;52.228;20.890;2024-02-23T15:14:00;10.10;99.90
42085;DHT22;27746;52.228;20.890;2024-02-23T15:16:28;10.00;99.90
42085;DHT22;27746;52.228;20.890;2024-02-23T15:18:57;10.00;99.90
42085;DHT22;27746;52.228;20.890;2024-02-23T15:21:25;10.00;99.90
42085;DHT22;27746;52.228;20.890;2024-02-23T15:23:52;10.00;99.90
42085;DHT22;27746;52.228;20.890;2024-02-23T15:26:19;10.00;99.90
42085;DHT22;27746;52.228;20.890;2024-02-23T15:28:45;9.90;99.90
42085;DHT22;27746;52.228;20.890;2024-02-23T15:31:13;9.90;99.90
42085;DHT22;27746;52.228;20.890;2024-02-23T15:33:40;9.90;99.90
42085;DHT22;27746;52.228;20.890;2024-02-23T15:36:09;9.90;99.90
42085;DHT22;27746;52.228;20.890;2024-02-23T15:38:36;9.90;99.90
42085;DHT22;27746;52.228;20.890;2024-02-23T15:41:03;9.90;99.90
42085;DHT22;27746;52.228;20.890;2024-02-23T15:43:30;9.90;99.90
42085;DHT22;27746;52.228;20.890;2024-02-23T15:46:01;9.90;99.90
42085;DHT22;27746;52.228;20.890;2024-02-23T15:48:28;9.90;99.90